createdAt,value
2022-10-16T00:00:21.840Z,12.19
2022-10-16T00:01:44.738Z,12.20
2022-10-16T00:03:51.417Z,12.22
2022-10-16T00:04:55.806Z,12.24
2022-10-16T00:06:00.941Z,12.26
2022-10-16T00:07:03.843Z,12.28
2022-10-16T00:08:06.928Z,12.29
2022-10-16T00:09:09.887Z,12.31
2022-10-16T00:10:12.771Z,12.32
2022-10-16T00:11:25.230Z,12.32
2022-10-16T00:12:28.325Z,12.32
2022-10-16T00:13:32.103Z,12.33
2022-10-16T00:14:35.064Z,12.34
2022-10-16T00:15:38.292Z,12.35
2022-10-16T00:16:41.903Z,12.35
2022-10-16T00:17:44.774Z,12.36
2022-10-16T00:18:47.896Z,12.36
2022-10-16T00:19:50.996Z,12.36
2022-10-16T00:21:57.021Z,12.39
2022-10-16T00:22:59.927Z,12.41
2022-10-16T00:24:07.266Z,12.42
2022-10-16T00:25:10.421Z,12.43
2022-10-16T00:26:18.965Z,12.44
2022-10-16T00:27:21.902Z,12.46
2022-10-16T00:28:25.065Z,12.46
2022-10-16T00:29:28.009Z,12.47
2022-10-16T00:30:31.174Z,12.48
2022-10-16T00:31:34.161Z,12.49
2022-10-16T00:32:37.052Z,12.50
2022-10-16T00:33:40.594Z,12.51
2022-10-16T00:34:43.658Z,12.52
2022-10-16T00:35:46.634Z,12.53
2022-10-16T00:36:49.602Z,12.51
2022-10-16T00:37:52.493Z,12.51
2022-10-16T00:38:56.431Z,12.49
2022-10-16T00:39:59.517Z,12.49
2022-10-16T00:41:02.558Z,12.50
2022-10-16T00:42:06.084Z,12.50
2022-10-16T00:43:27.506Z,12.51
2022-10-16T00:44:44.414Z,12.51
2022-10-16T00:45:47.469Z,12.53
2022-10-16T00:46:51.321Z,12.53
2022-10-16T00:47:56.548Z,12.53
2022-10-16T00:49:04.427Z,12.54
2022-10-16T00:50:14.458Z,12.56
2022-10-16T00:51:20.603Z,12.57
2022-10-16T00:52:23.792Z,12.58
2022-10-16T00:53:28.176Z,12.59
2022-10-16T00:54:32.470Z,12.61
2022-10-16T00:55:38.796Z,12.61
2022-10-16T00:56:45.846Z,12.63
2022-10-16T00:57:49.437Z,12.65
2022-10-16T00:58:52.522Z,12.68
2022-10-16T00:59:55.742Z,12.72
2022-10-16T01:00:58.599Z,12.75
2022-10-16T01:02:02.029Z,12.78
2022-10-16T01:03:23.377Z,12.82
2022-10-16T01:04:27.251Z,12.87
2022-10-16T01:05:37.363Z,12.91
2022-10-16T01:06:45.831Z,12.96
2022-10-16T01:08:02.190Z,12.99
2022-10-16T01:09:22.340Z,13.03
2022-10-16T01:10:35.835Z,13.07
2022-10-16T01:11:43.579Z,13.11
2022-10-16T01:13:00.797Z,13.14
2022-10-16T01:14:11.144Z,13.17
2022-10-16T01:15:20.548Z,13.21
2022-10-16T01:16:23.745Z,13.24
2022-10-16T01:17:34.000Z,13.27
2022-10-16T01:18:55.400Z,13.31
2022-10-16T01:20:04.571Z,13.34
2022-10-16T01:21:10.594Z,13.37
2022-10-16T01:22:14.243Z,13.39
2022-10-16T01:23:20.114Z,13.42
2022-10-16T01:24:31.919Z,13.45
2022-10-16T01:25:34.893Z,13.48
2022-10-16T01:26:56.094Z,13.51
2022-10-16T01:28:00.628Z,13.53
2022-10-16T01:29:12.923Z,13.54
2022-10-16T01:30:22.227Z,13.54
2022-10-16T01:31:26.952Z,13.54
2022-10-16T01:32:34.531Z,13.52
2022-10-16T01:33:41.997Z,13.51
2022-10-16T01:34:54.305Z,13.50
2022-10-16T01:36:00.299Z,13.50
2022-10-16T01:37:13.060Z,13.50
2022-10-16T01:38:16.241Z,13.51
2022-10-16T01:39:21.766Z,13.49
2022-10-16T01:40:27.406Z,13.49
2022-10-16T01:41:36.217Z,13.48
2022-10-16T01:42:42.952Z,13.46
2022-10-16T01:43:51.327Z,13.45
2022-10-16T01:44:55.972Z,13.45
2022-10-16T01:46:00.311Z,13.44
2022-10-16T01:47:04.070Z,13.44
2022-10-16T01:48:09.133Z,13.45
2022-10-16T01:49:14.433Z,13.45
2022-10-16T01:50:19.407Z,13.47
2022-10-16T01:51:23.082Z,13.48
2022-10-16T01:52:28.584Z,13.51
2022-10-16T01:53:32.418Z,13.53
2022-10-16T01:54:36.700Z,13.56
2022-10-16T01:55:44.800Z,13.59
2022-10-16T01:56:49.772Z,13.63
2022-10-16T01:57:53.941Z,13.67
2022-10-16T01:58:59.910Z,13.70
2022-10-16T02:00:05.428Z,13.75
2022-10-16T02:02:28.137Z,13.86
2022-10-16T02:03:32.001Z,13.90
2022-10-16T02:04:40.506Z,13.95
2022-10-16T02:05:54.494Z,13.99
2022-10-16T02:06:57.491Z,14.03
2022-10-16T02:08:03.197Z,14.07
2022-10-16T02:09:08.479Z,14.10
2022-10-16T02:10:11.387Z,14.14
2022-10-16T02:11:14.282Z,14.16
2022-10-16T02:12:24.197Z,14.19
2022-10-16T02:13:31.086Z,14.22
2022-10-16T02:14:34.019Z,14.24
2022-10-16T02:15:37.060Z,14.26
2022-10-16T02:16:41.512Z,14.29
2022-10-16T02:17:48.195Z,14.30
2022-10-16T02:18:51.127Z,14.31
2022-10-16T02:19:55.858Z,14.33
2022-10-16T02:21:20.126Z,14.33
2022-10-16T02:22:27.539Z,14.34
2022-10-16T02:23:30.796Z,14.33
2022-10-16T02:24:33.571Z,14.33
2022-10-16T02:25:38.679Z,14.34
2022-10-16T02:26:44.440Z,14.34
2022-10-16T02:28:00.464Z,14.34
2022-10-16T02:29:06.694Z,14.33
2022-10-16T02:30:15.386Z,14.33
2022-10-16T02:32:47.653Z,14.30
2022-10-16T02:33:52.067Z,14.28
2022-10-16T02:34:55.631Z,14.26
2022-10-16T02:35:58.782Z,14.24
2022-10-16T02:37:02.988Z,14.21
2022-10-16T02:38:07.249Z,14.18
2022-10-16T02:39:10.641Z,14.14
2022-10-16T02:40:13.608Z,14.09
2022-10-16T02:41:16.531Z,14.04
2022-10-16T02:42:19.767Z,14.02
2022-10-16T02:43:22.776Z,14.01
2022-10-16T02:44:26.164Z,14.00
2022-10-16T02:45:30.192Z,13.99
2022-10-16T02:46:33.296Z,13.95
2022-10-16T02:47:36.179Z,13.90
2022-10-16T02:48:40.415Z,13.85
2022-10-16T02:49:43.398Z,13.80
2022-10-16T02:50:46.456Z,13.77
2022-10-16T02:51:49.299Z,13.74
2022-10-16T02:52:52.206Z,13.71
2022-10-16T02:53:55.030Z,13.70
2022-10-16T02:54:57.952Z,13.68
2022-10-16T02:56:00.881Z,13.67
2022-10-16T02:57:03.799Z,13.65
2022-10-16T02:58:07.319Z,13.63
2022-10-16T02:59:10.385Z,13.62
2022-10-16T03:00:14.741Z,13.60
2022-10-16T03:01:18.029Z,13.58
2022-10-16T03:02:22.011Z,13.57
2022-10-16T03:03:25.383Z,13.54
2022-10-16T03:04:28.327Z,13.53
2022-10-16T03:05:31.464Z,13.52
2022-10-16T03:06:34.282Z,13.49
2022-10-16T03:07:37.124Z,13.45
2022-10-16T03:08:40.199Z,13.44
2022-10-16T03:09:43.631Z,13.42
2022-10-16T03:10:46.732Z,13.40
2022-10-16T03:11:49.787Z,13.40
2022-10-16T03:12:52.671Z,13.40
2022-10-16T03:13:55.599Z,13.40
2022-10-16T03:14:59.061Z,13.39
2022-10-16T03:16:02.655Z,13.40
2022-10-16T03:17:05.578Z,13.40
2022-10-16T03:18:14.160Z,13.40
2022-10-16T03:19:18.051Z,13.41
2022-10-16T03:20:21.339Z,13.40
2022-10-16T03:21:24.924Z,13.41
2022-10-16T03:22:27.759Z,13.42
2022-10-16T03:24:39.254Z,13.41
2022-10-16T03:25:49.522Z,13.41
2022-10-16T03:26:54.635Z,13.39
2022-10-16T03:27:57.515Z,13.36
2022-10-16T03:29:00.569Z,13.35
2022-10-16T03:30:03.844Z,13.35
2022-10-16T03:31:06.929Z,13.34
2022-10-16T03:32:10.034Z,13.34
2022-10-16T03:33:12.868Z,13.33
2022-10-16T03:34:15.831Z,13.33
2022-10-16T03:35:18.825Z,13.34
2022-10-16T03:36:22.125Z,13.36
2022-10-16T03:37:25.851Z,13.38
2022-10-16T03:38:28.984Z,13.39
2022-10-16T03:39:31.807Z,13.40
2022-10-16T03:40:34.690Z,13.39
2022-10-16T03:41:37.739Z,13.39
2022-10-16T03:42:40.750Z,13.42
2022-10-16T03:43:43.582Z,13.45
2022-10-16T03:44:46.646Z,13.47
2022-10-16T03:45:51.165Z,13.49
2022-10-16T03:46:54.143Z,13.52
2022-10-16T03:47:57.989Z,13.55
2022-10-16T03:49:01.720Z,13.57
2022-10-16T03:50:06.135Z,13.60
2022-10-16T03:51:09.028Z,13.62
2022-10-16T03:52:12.095Z,13.64
2022-10-16T03:53:15.540Z,13.67
2022-10-16T03:54:18.568Z,13.69
2022-10-16T03:55:21.529Z,13.71
2022-10-16T03:56:24.516Z,13.73
2022-10-16T03:57:28.275Z,13.75
2022-10-16T03:58:31.743Z,13.77
2022-10-16T03:59:34.572Z,13.78
2022-10-16T04:00:40.811Z,13.81
2022-10-16T04:01:43.883Z,13.83
2022-10-16T04:03:55.022Z,13.86
2022-10-16T04:04:57.974Z,13.88
2022-10-16T04:06:02.216Z,13.89
2022-10-16T04:07:05.182Z,13.91
2022-10-16T04:08:08.313Z,13.93
2022-10-16T04:09:11.536Z,13.95
2022-10-16T04:10:14.993Z,13.97
2022-10-16T04:11:17.939Z,13.99
2022-10-16T04:12:20.935Z,14.00
2022-10-16T04:13:23.911Z,14.01
2022-10-16T04:14:27.844Z,14.02
2022-10-16T04:15:31.196Z,14.04
2022-10-16T04:16:34.060Z,14.05
2022-10-16T04:17:36.983Z,14.06
2022-10-16T04:18:40.035Z,14.08
2022-10-16T04:19:43.236Z,14.09
2022-10-16T04:20:46.138Z,14.10
2022-10-16T04:21:48.988Z,14.11
2022-10-16T04:22:51.837Z,14.12
2022-10-16T04:23:54.830Z,14.13
2022-10-16T04:24:57.989Z,14.14
2022-10-16T04:26:01.482Z,14.14
2022-10-16T04:27:04.454Z,14.15
2022-10-16T04:28:07.536Z,14.16
2022-10-16T04:29:10.526Z,14.17
2022-10-16T04:30:16.670Z,14.17
2022-10-16T04:31:19.512Z,14.18
2022-10-16T04:32:22.433Z,14.18
2022-10-16T04:33:25.324Z,14.19
2022-10-16T04:34:28.272Z,14.19
2022-10-16T04:35:31.950Z,14.19
2022-10-16T04:36:34.860Z,14.20
2022-10-16T04:37:37.934Z,14.21
2022-10-16T04:38:40.967Z,14.21
2022-10-16T04:39:44.747Z,14.21
2022-10-16T04:40:47.625Z,14.21
2022-10-16T04:41:50.513Z,14.21
2022-10-16T04:42:53.704Z,14.21
2022-10-16T04:43:56.617Z,14.21
2022-10-16T04:44:59.735Z,14.22
2022-10-16T04:46:05.650Z,14.22
2022-10-16T04:47:09.290Z,14.23
2022-10-16T04:48:12.310Z,14.22
2022-10-16T04:49:15.371Z,14.23
2022-10-16T04:50:18.328Z,14.22
2022-10-16T04:51:35.310Z,14.21
2022-10-16T04:52:38.254Z,14.21
2022-10-16T04:53:41.100Z,14.21
2022-10-16T04:54:46.102Z,14.21
2022-10-16T04:55:49.301Z,14.21
2022-10-16T04:56:53.015Z,14.19
2022-10-16T04:57:55.893Z,14.20
2022-10-16T04:58:58.725Z,14.20
2022-10-16T05:00:01.958Z,14.19
2022-10-16T05:01:05.130Z,14.19
2022-10-16T05:02:08.162Z,14.18
2022-10-16T05:03:11.100Z,14.17
2022-10-16T05:04:16.009Z,14.17
2022-10-16T05:05:20.514Z,14.17
2022-10-16T05:06:23.448Z,14.15
2022-10-16T05:07:26.731Z,14.16
2022-10-16T05:08:30.503Z,14.14
2022-10-16T05:09:33.367Z,14.14
2022-10-16T05:10:36.337Z,14.13
2022-10-16T05:11:39.403Z,14.11
2022-10-16T05:12:42.335Z,14.10
2022-10-16T05:13:45.351Z,14.10
2022-10-16T05:14:48.282Z,14.09
2022-10-16T05:15:51.238Z,14.08
2022-10-16T05:16:54.312Z,14.08
2022-10-16T05:17:57.420Z,14.08
2022-10-16T05:20:23.296Z,14.05
2022-10-16T05:21:26.111Z,14.05
2022-10-16T05:22:28.933Z,14.05
2022-10-16T05:23:32.048Z,14.05
2022-10-16T05:24:35.024Z,14.05
2022-10-16T05:25:38.022Z,14.05
2022-10-16T05:26:41.044Z,14.05
2022-10-16T05:27:44.502Z,14.05
2022-10-16T05:28:47.774Z,14.04
2022-10-16T05:29:50.649Z,14.05
2022-10-16T05:30:53.518Z,14.05
2022-10-16T05:31:56.390Z,14.06
2022-10-16T05:32:59.457Z,14.07
2022-10-16T05:34:02.924Z,14.07
2022-10-16T05:35:07.609Z,14.09
2022-10-16T05:36:13.922Z,14.09
2022-10-16T05:37:16.876Z,14.11
2022-10-16T05:38:19.961Z,14.11
2022-10-16T05:39:22.902Z,14.12
2022-10-16T05:40:25.685Z,14.13
2022-10-16T05:41:28.595Z,14.13
2022-10-16T05:42:31.615Z,14.14
2022-10-16T05:43:34.504Z,14.14
2022-10-16T05:44:37.469Z,14.15
2022-10-16T05:45:40.355Z,14.16
2022-10-16T05:46:43.357Z,14.17
2022-10-16T05:47:47.357Z,14.18
2022-10-16T05:48:52.932Z,14.19
2022-10-16T05:49:56.500Z,14.20
2022-10-16T05:51:06.412Z,14.20
2022-10-16T05:52:09.254Z,14.20
2022-10-16T05:53:13.214Z,14.22
2022-10-16T05:54:16.296Z,14.23
2022-10-16T05:55:19.409Z,14.24
2022-10-16T05:56:22.354Z,14.24
2022-10-16T05:57:25.938Z,14.26
2022-10-16T05:58:30.062Z,14.27
2022-10-16T05:59:33.312Z,14.28
2022-10-16T06:00:36.199Z,14.29
2022-10-16T06:01:39.152Z,14.30
2022-10-16T06:02:42.091Z,14.32
2022-10-16T06:03:45.387Z,14.32
2022-10-16T06:04:48.335Z,14.33
2022-10-16T06:05:51.491Z,14.34
2022-10-16T06:07:01.305Z,14.35
2022-10-16T06:08:04.482Z,14.36
2022-10-16T06:09:07.562Z,14.37
2022-10-16T06:10:10.461Z,14.37
2022-10-16T06:11:15.168Z,14.38
2022-10-16T06:12:18.100Z,14.38
2022-10-16T06:13:20.932Z,14.39
2022-10-16T06:14:23.958Z,14.40
2022-10-16T06:15:26.893Z,14.40
2022-10-16T06:16:30.518Z,14.41
2022-10-16T06:17:35.504Z,14.42
2022-10-16T06:18:38.405Z,14.43
2022-10-16T06:19:41.381Z,14.44
2022-10-16T06:20:45.573Z,14.45
2022-10-16T06:21:49.030Z,14.46
2022-10-16T06:22:51.834Z,14.47
2022-10-16T06:23:55.713Z,14.48
2022-10-16T06:24:58.491Z,14.49
2022-10-16T06:26:11.794Z,14.50
2022-10-16T06:27:14.701Z,14.51
2022-10-16T06:28:21.992Z,14.52
2022-10-16T06:29:25.031Z,14.53
2022-10-16T06:30:28.209Z,14.53
2022-10-16T06:31:34.369Z,14.54
2022-10-16T06:32:37.739Z,14.54
2022-10-16T06:33:40.614Z,14.54
2022-10-16T06:34:44.228Z,14.55
2022-10-16T06:35:47.411Z,14.55
2022-10-16T06:36:50.405Z,14.55
2022-10-16T06:37:56.523Z,14.54
2022-10-16T06:38:59.611Z,14.55
2022-10-16T06:40:05.251Z,14.55
2022-10-16T06:41:08.842Z,14.54
2022-10-16T06:42:11.674Z,14.55
2022-10-16T06:43:14.590Z,14.55
2022-10-16T06:44:17.425Z,14.55
2022-10-16T06:45:20.356Z,14.54
2022-10-16T06:46:24.693Z,14.54
2022-10-16T06:47:28.150Z,14.54
2022-10-16T06:48:31.563Z,14.53
2022-10-16T06:49:34.394Z,14.53
2022-10-16T06:50:37.279Z,14.52
2022-10-16T06:51:43.345Z,14.51
2022-10-16T06:52:46.848Z,14.51
2022-10-16T06:54:06.383Z,14.50
2022-10-16T06:55:09.834Z,14.50
2022-10-16T06:56:14.211Z,14.49
2022-10-16T06:57:17.852Z,14.49
2022-10-16T06:58:21.117Z,14.47
2022-10-16T06:59:24.146Z,14.46
2022-10-16T07:00:29.914Z,14.45
2022-10-16T07:01:33.338Z,14.45
2022-10-16T07:02:36.196Z,14.43
2022-10-16T07:03:40.080Z,14.43
2022-10-16T07:04:43.233Z,14.41
2022-10-16T07:05:46.073Z,14.41
2022-10-16T07:06:48.969Z,14.39
2022-10-16T07:07:52.146Z,14.38
2022-10-16T07:08:55.331Z,14.36
2022-10-16T07:09:58.458Z,14.36
2022-10-16T07:11:02.160Z,14.34
2022-10-16T07:12:05.245Z,14.33
2022-10-16T07:13:08.676Z,14.32
2022-10-16T07:14:17.109Z,14.33
2022-10-16T07:15:20.236Z,14.34
2022-10-16T07:16:31.103Z,14.35
2022-10-16T07:17:34.119Z,14.36
2022-10-16T07:18:37.919Z,14.37
2022-10-16T07:19:40.921Z,14.37
2022-10-16T07:20:44.078Z,14.39
2022-10-16T07:21:47.091Z,14.39
2022-10-16T07:22:50.902Z,14.40
2022-10-16T07:23:54.660Z,14.41
2022-10-16T07:24:57.679Z,14.41
2022-10-16T07:26:00.903Z,14.42
2022-10-16T07:27:03.917Z,14.43
2022-10-16T07:28:07.961Z,14.44
2022-10-16T07:29:15.212Z,14.45
2022-10-16T07:30:18.139Z,14.46
2022-10-16T07:31:21.560Z,14.46
2022-10-16T07:32:26.831Z,14.46
2022-10-16T07:33:30.197Z,14.47
2022-10-16T07:34:33.259Z,14.48
2022-10-16T07:35:36.117Z,14.50
2022-10-16T07:36:39.193Z,14.50
2022-10-16T07:37:45.355Z,14.51
2022-10-16T07:38:48.803Z,14.52
2022-10-16T07:39:51.771Z,14.52
2022-10-16T07:41:01.744Z,14.52
2022-10-16T07:42:04.839Z,14.54
2022-10-16T07:43:08.292Z,14.54
2022-10-16T07:44:11.133Z,14.56
2022-10-16T07:45:14.341Z,14.57
2022-10-16T07:46:17.763Z,14.58
2022-10-16T07:47:21.730Z,14.59
2022-10-16T07:48:25.380Z,14.60
2022-10-16T07:49:28.251Z,14.61
2022-10-16T07:50:31.151Z,14.61
2022-10-16T07:51:34.281Z,14.62
2022-10-16T07:52:37.509Z,14.64
2022-10-16T07:53:40.365Z,14.64
2022-10-16T07:54:43.298Z,14.65
2022-10-16T07:55:46.311Z,14.65
2022-10-16T07:56:49.243Z,14.67
2022-10-16T07:57:52.267Z,14.69
2022-10-16T07:58:55.330Z,14.70
2022-10-16T07:59:58.271Z,14.71
2022-10-16T08:01:04.377Z,14.74
2022-10-16T08:02:08.455Z,14.76
2022-10-16T08:03:11.398Z,14.78
2022-10-16T08:04:14.219Z,14.80
2022-10-16T08:05:17.115Z,14.82
2022-10-16T08:06:25.016Z,14.84
2022-10-16T08:07:30.865Z,14.86
2022-10-16T08:08:34.132Z,14.87
2022-10-16T08:09:37.006Z,14.88
2022-10-16T08:10:39.883Z,14.89
2022-10-16T08:11:42.864Z,14.91
2022-10-16T08:12:45.817Z,14.91
2022-10-16T08:13:48.902Z,14.94
2022-10-16T08:14:51.853Z,14.96
2022-10-16T08:15:54.869Z,14.97
2022-10-16T08:16:57.764Z,15.00
2022-10-16T08:18:04.206Z,15.01
2022-10-16T08:19:09.385Z,15.04
2022-10-16T08:20:12.464Z,15.05
2022-10-16T08:21:20.501Z,15.07
2022-10-16T08:22:24.620Z,15.09
2022-10-16T08:23:28.308Z,15.11
2022-10-16T08:24:32.281Z,15.12
2022-10-16T08:25:35.649Z,15.14
2022-10-16T08:26:38.590Z,15.15
2022-10-16T08:27:41.482Z,15.17
2022-10-16T08:28:44.453Z,15.18
2022-10-16T08:29:47.584Z,15.20
2022-10-16T08:30:50.503Z,15.23
2022-10-16T08:31:53.304Z,15.25
2022-10-16T08:32:56.178Z,15.26
2022-10-16T08:33:58.999Z,15.28
2022-10-16T08:35:01.991Z,15.30
2022-10-16T08:36:06.000Z,15.31
2022-10-16T08:37:12.190Z,15.33
2022-10-16T08:38:15.171Z,15.35
2022-10-16T08:39:18.051Z,15.37
2022-10-16T08:41:53.732Z,15.39
2022-10-16T08:42:56.533Z,15.41
2022-10-16T08:44:17.909Z,15.42
2022-10-16T08:45:27.215Z,15.43
2022-10-16T08:46:33.474Z,15.44
2022-10-16T08:47:54.821Z,15.46
2022-10-16T08:49:00.048Z,15.48
2022-10-16T08:50:09.011Z,15.49
2022-10-16T08:51:14.834Z,15.51
2022-10-16T08:52:17.936Z,15.52
2022-10-16T08:53:32.362Z,15.54
2022-10-16T08:54:35.915Z,15.56
2022-10-16T08:55:42.545Z,15.58
2022-10-16T08:56:45.564Z,15.60
2022-10-16T08:57:48.441Z,15.62
2022-10-16T08:58:55.125Z,15.63
2022-10-16T09:00:16.109Z,15.65
2022-10-16T09:01:40.920Z,15.66
2022-10-16T09:02:53.318Z,15.67
2022-10-16T09:03:56.257Z,15.67
2022-10-16T09:05:05.423Z,15.67
2022-10-16T09:06:20.682Z,15.68
2022-10-16T09:07:36.068Z,15.70
2022-10-16T09:08:50.990Z,15.72
2022-10-16T09:10:04.558Z,15.74
2022-10-16T09:11:08.631Z,15.76
2022-10-16T09:12:20.551Z,15.77
2022-10-16T09:13:31.072Z,15.79
2022-10-16T09:14:37.349Z,15.81
2022-10-16T09:15:40.320Z,15.82
2022-10-16T09:16:49.971Z,15.84
2022-10-16T09:17:58.864Z,15.86
2022-10-16T09:19:01.716Z,15.87
2022-10-16T09:20:19.397Z,15.88
2022-10-16T09:21:28.141Z,15.91
2022-10-16T09:22:32.568Z,15.92
2022-10-16T09:23:36.474Z,15.92
2022-10-16T09:24:39.447Z,15.93
2022-10-16T09:25:44.506Z,15.93
2022-10-16T09:26:48.161Z,15.93
2022-10-16T09:27:53.551Z,15.92
2022-10-16T09:28:56.585Z,15.93
2022-10-16T09:30:00.275Z,15.93
2022-10-16T09:31:03.261Z,15.93
2022-10-16T09:32:18.512Z,15.92
2022-10-16T09:33:31.114Z,15.91
2022-10-16T09:34:39.352Z,15.90
2022-10-16T09:35:42.272Z,15.88
2022-10-16T09:36:46.183Z,15.87
2022-10-16T09:37:51.427Z,15.85
2022-10-16T09:39:07.810Z,15.84
2022-10-16T09:40:35.344Z,15.84
2022-10-16T09:41:39.606Z,15.83
2022-10-16T09:42:42.829Z,15.84
2022-10-16T09:43:51.132Z,15.85
2022-10-16T09:44:54.666Z,15.85
2022-10-16T09:46:00.092Z,15.85
2022-10-16T09:47:12.435Z,15.85
2022-10-16T09:48:20.483Z,15.84
2022-10-16T09:49:25.234Z,15.84
2022-10-16T09:50:28.978Z,15.83
2022-10-16T09:51:33.659Z,15.82
2022-10-16T09:52:36.712Z,15.81
2022-10-16T09:53:41.747Z,15.81
2022-10-16T09:54:55.410Z,15.80
2022-10-16T09:55:58.832Z,15.80
2022-10-16T09:57:08.543Z,15.81
2022-10-16T09:58:15.006Z,15.82
2022-10-16T09:59:22.052Z,15.82
2022-10-16T10:00:25.576Z,15.82
2022-10-16T10:01:39.322Z,15.82
2022-10-16T10:02:42.383Z,15.82
2022-10-16T10:03:45.871Z,15.83
2022-10-16T10:04:50.999Z,15.83
2022-10-16T10:05:56.266Z,15.82
2022-10-16T10:07:02.979Z,15.82
2022-10-16T10:08:07.322Z,15.82
2022-10-16T10:09:24.503Z,15.83
2022-10-16T10:10:31.640Z,15.83
2022-10-16T10:11:38.580Z,15.82
2022-10-16T10:12:41.971Z,15.82
2022-10-16T10:13:44.818Z,15.85
2022-10-16T10:14:52.418Z,15.84
2022-10-16T10:15:55.245Z,15.84
2022-10-16T10:17:07.578Z,15.85
2022-10-16T10:18:18.060Z,15.84
2022-10-16T10:19:22.633Z,15.86
2022-10-16T10:20:25.536Z,15.87
2022-10-16T10:21:28.496Z,15.88
2022-10-16T10:22:31.759Z,15.88
2022-10-16T10:23:34.556Z,15.90
2022-10-16T10:24:38.947Z,15.90
2022-10-16T10:25:50.243Z,15.92
2022-10-16T10:27:01.799Z,15.93
2022-10-16T10:28:23.284Z,15.95
2022-10-16T10:29:38.179Z,15.98
2022-10-16T10:30:41.039Z,16.01
2022-10-16T10:32:02.556Z,16.02
2022-10-16T10:33:17.704Z,16.04
2022-10-16T10:34:26.593Z,16.05
2022-10-16T10:35:41.551Z,16.07
2022-10-16T10:36:50.665Z,16.07
2022-10-16T10:37:59.632Z,16.08
2022-10-16T10:39:09.284Z,16.09
2022-10-16T10:40:30.773Z,16.10
2022-10-16T10:41:45.847Z,16.11
2022-10-16T10:42:51.742Z,16.11
2022-10-16T10:44:00.282Z,16.11
2022-10-16T10:45:05.866Z,16.11
2022-10-16T10:46:15.194Z,16.10
2022-10-16T10:47:21.076Z,16.12
2022-10-16T10:48:26.617Z,16.14
2022-10-16T10:49:49.033Z,16.17
2022-10-16T10:50:59.709Z,16.19
2022-10-16T10:52:11.930Z,16.22
2022-10-16T10:53:14.683Z,16.24
2022-10-16T10:54:20.336Z,16.25
2022-10-16T10:55:32.667Z,16.26
2022-10-16T10:56:54.311Z,16.26
2022-10-16T10:58:09.665Z,16.27
2022-10-16T10:59:31.091Z,16.28
2022-10-16T11:00:46.014Z,16.30
2022-10-16T11:01:57.167Z,16.32
2022-10-16T11:03:12.187Z,16.35
2022-10-16T11:04:53.545Z,16.38
2022-10-16T11:06:08.825Z,16.44
2022-10-16T11:07:18.267Z,16.50
2022-10-16T11:08:29.183Z,16.55
2022-10-16T11:09:35.714Z,16.60
2022-10-16T11:10:46.480Z,16.64
2022-10-16T11:11:53.680Z,16.71
2022-10-16T11:13:00.874Z,16.75
2022-10-16T11:14:06.758Z,16.80
2022-10-16T11:15:15.339Z,16.85
2022-10-16T11:16:24.817Z,16.90
2022-10-16T11:17:40.630Z,16.97
2022-10-16T11:19:02.189Z,17.04
2022-10-16T11:20:23.924Z,17.11
2022-10-16T11:21:31.180Z,17.22
2022-10-16T11:22:34.235Z,17.28
2022-10-16T11:23:37.024Z,17.33
2022-10-16T11:24:42.924Z,17.37
2022-10-16T11:25:47.287Z,17.41
2022-10-16T11:26:51.430Z,17.44
2022-10-16T11:27:54.221Z,17.49
2022-10-16T11:28:57.736Z,17.54
2022-10-16T11:30:02.432Z,17.58
2022-10-16T11:31:25.807Z,17.61
2022-10-16T11:32:35.487Z,17.66
2022-10-16T11:33:44.011Z,17.70
2022-10-16T11:34:51.107Z,17.71
2022-10-16T11:36:12.723Z,17.74
2022-10-16T11:37:18.553Z,17.75
2022-10-16T11:38:21.383Z,17.78
2022-10-16T11:39:28.539Z,17.80
2022-10-16T11:40:36.713Z,17.81
2022-10-16T11:41:48.682Z,17.81
2022-10-16T11:43:07.133Z,17.81
2022-10-16T11:44:28.745Z,17.81
2022-10-16T11:45:38.898Z,17.80
2022-10-16T11:46:58.910Z,17.79
2022-10-16T11:48:07.291Z,17.79
2022-10-16T11:49:19.775Z,17.79
2022-10-16T11:50:44.872Z,17.79
2022-10-16T11:51:53.815Z,17.80
2022-10-16T11:53:02.098Z,17.81
2022-10-16T11:54:08.139Z,17.83
2022-10-16T11:55:27.038Z,17.84
2022-10-16T11:56:32.051Z,17.87
2022-10-16T11:57:39.967Z,17.88
2022-10-16T11:58:49.346Z,17.89
2022-10-16T12:00:12.586Z,17.92
2022-10-16T12:01:34.095Z,17.97
2022-10-16T12:02:41.674Z,18.01
2022-10-16T12:03:56.662Z,18.04
2022-10-16T12:05:07.064Z,18.08
2022-10-16T12:06:32.456Z,18.13
2022-10-16T12:07:38.177Z,18.20
2022-10-16T12:08:41.326Z,18.25
2022-10-16T12:09:44.246Z,18.32
2022-10-16T12:10:48.384Z,18.40
2022-10-16T12:11:51.199Z,18.48
2022-10-16T12:12:54.534Z,18.55
2022-10-16T12:14:06.172Z,18.62
2022-10-16T12:15:47.033Z,18.71
2022-10-16T12:17:06.435Z,18.79
2022-10-16T12:18:21.739Z,18.85
2022-10-16T12:19:26.257Z,18.92
2022-10-16T12:20:34.003Z,18.97
2022-10-16T12:21:37.090Z,18.99
2022-10-16T12:22:55.682Z,18.99
2022-10-16T12:23:59.717Z,19.00
2022-10-16T12:25:02.486Z,19.00
2022-10-16T12:26:06.389Z,19.03
2022-10-16T12:27:25.387Z,19.10
2022-10-16T12:28:29.991Z,19.21
2022-10-16T12:29:35.884Z,19.30
2022-10-16T12:30:38.918Z,19.38
2022-10-16T12:31:54.591Z,19.42
2022-10-16T12:33:02.739Z,19.52
2022-10-16T12:34:05.753Z,19.68
2022-10-16T12:35:38.079Z,19.82
2022-10-16T12:36:41.010Z,20.05
2022-10-16T12:37:45.118Z,20.19
2022-10-16T12:38:49.091Z,20.33
2022-10-16T12:39:53.347Z,20.45
2022-10-16T12:40:59.222Z,20.58
2022-10-16T12:42:06.584Z,20.70
2022-10-16T12:43:13.449Z,20.73
2022-10-16T12:44:25.135Z,20.72
2022-10-16T12:45:28.179Z,20.78
2022-10-16T12:46:31.058Z,20.84
2022-10-16T12:47:33.978Z,20.91
2022-10-16T12:48:48.805Z,20.93
2022-10-16T12:49:59.254Z,20.92
2022-10-16T12:51:34.382Z,20.91
2022-10-16T12:52:39.243Z,20.96
2022-10-16T12:53:42.107Z,21.02
2022-10-16T12:54:44.925Z,21.10
2022-10-16T12:55:53.986Z,21.17
2022-10-16T12:57:05.861Z,21.27
2022-10-16T12:58:38.019Z,21.32
2022-10-16T12:59:56.163Z,21.32
2022-10-16T13:01:02.653Z,21.22
2022-10-16T13:02:37.921Z,21.13
2022-10-16T13:03:40.970Z,21.01
2022-10-16T13:05:04.055Z,20.96
2022-10-16T13:06:12.906Z,20.94
2022-10-16T13:07:22.037Z,20.94
2022-10-16T13:08:43.429Z,20.97
2022-10-16T13:10:05.874Z,21.11
2022-10-16T13:11:08.664Z,21.34
2022-10-16T13:12:17.460Z,21.52
2022-10-16T13:13:41.499Z,21.72
2022-10-16T13:15:03.128Z,21.93
2022-10-16T13:16:23.942Z,22.02
2022-10-16T13:17:32.650Z,22.05
2022-10-16T13:18:47.907Z,21.99
2022-10-16T13:20:06.226Z,21.93
2022-10-16T13:21:19.393Z,21.85
2022-10-16T13:22:25.380Z,21.72
2022-10-16T13:23:39.469Z,21.61
2022-10-16T13:24:54.743Z,21.44
2022-10-16T13:26:12.465Z,21.27
2022-10-16T13:27:33.725Z,21.12
2022-10-16T13:28:39.202Z,21.00
2022-10-16T13:29:42.770Z,20.90
2022-10-16T13:30:52.251Z,20.80
2022-10-16T13:31:55.090Z,20.65
2022-10-16T13:33:01.331Z,20.51
2022-10-16T13:34:06.304Z,20.35
2022-10-16T13:35:26.132Z,20.23
2022-10-16T13:36:30.340Z,20.10
2022-10-16T13:37:33.358Z,19.99
2022-10-16T13:38:37.563Z,19.90
2022-10-16T13:39:40.433Z,19.81
2022-10-16T13:40:54.390Z,19.72
2022-10-16T13:42:04.829Z,19.61
2022-10-16T13:43:10.932Z,19.52
2022-10-16T13:44:18.274Z,19.44
2022-10-16T13:45:22.110Z,19.38
2022-10-16T13:46:25.990Z,19.33
2022-10-16T13:47:30.540Z,19.27
2022-10-16T13:48:35.057Z,19.20
2022-10-16T13:49:37.984Z,19.16
2022-10-16T13:50:40.864Z,19.12
2022-10-16T13:51:54.979Z,19.09
2022-10-16T13:53:27.383Z,19.06
2022-10-16T13:54:30.341Z,19.04
2022-10-16T13:55:33.409Z,19.02
2022-10-16T13:56:36.259Z,19.00
2022-10-16T13:57:39.046Z,18.99
2022-10-16T13:58:42.531Z,18.98
2022-10-16T13:59:45.350Z,18.97
2022-10-16T14:00:55.707Z,18.96
2022-10-16T14:01:59.236Z,18.92
2022-10-16T14:03:04.396Z,18.90
2022-10-16T14:04:09.383Z,18.89
2022-10-16T14:05:15.255Z,18.89
2022-10-16T14:06:22.982Z,18.88
2022-10-16T14:07:27.703Z,18.86
2022-10-16T14:08:31.328Z,18.84
2022-10-16T14:09:36.200Z,18.83
2022-10-16T14:10:39.683Z,18.82
2022-10-16T14:11:56.964Z,18.80
2022-10-16T14:13:01.897Z,18.78
2022-10-16T14:14:04.886Z,18.75
2022-10-16T14:15:17.719Z,18.73
2022-10-16T14:16:22.428Z,18.70
2022-10-16T14:17:33.813Z,18.68
2022-10-16T14:18:39.013Z,18.66
2022-10-16T14:19:42.066Z,18.65
2022-10-16T14:20:45.050Z,18.63
2022-10-16T14:21:47.951Z,18.59
2022-10-16T14:22:58.976Z,18.57
2022-10-16T14:24:11.906Z,18.56
2022-10-16T14:25:20.879Z,18.55